sensor_id;sensor_type;location;lat;lon;timestamp;temperature;humidity
17128;DHT22;8679;50.842;4.322;2023-02-28T00:00:34;1.40;99.90
17128;DHT22;8679;50.842;4.322;2023-02-28T00:02:59;1.30;99.90
17128;DHT22;8679;50.842;4.322;2023-02-28T00:05:27;1.20;99.90
17128;DHT22;8679;50.842;4.322;2023-02-28T00:07:53;1.20;99.90
17128;DHT22;8679;50.842;4.322;2023-02-28T00:10:21;1.20;99.90
17128;DHT22;8679;50.842;4.322;2023-02-28T00:12:52;1.20;99.90
17128;DHT22;8679;50.842;4.322;2023-02-28T00:15:18;1.10;99.90
17128;DHT22;8679;50.842;4.322;2023-02-28T00:17:44;1.10;99.90
17128;DHT22;8679;50.842;4.322;2023-02-28T00:20:11;1.10;99.90
17128;DHT22;8679;50.842;4.322;2023-02-28T00:22:43;1.10;99.90
17128;DHT22;8679;50.842;4.322;2023-02-28T00:25:10;1.10;99.90
17128;DHT22;8679;50.842;4.322;2023-02-28T00:27:37;1.10;99.90
17128;DHT22;8679;50.842;4.322;2023-02-28T00:30:03;1.00;99.90
17128;DHT22;8679;50.842;4.322;2023-02-28T00:32:29;1.00;99.90
17128;DHT22;8679;50.842;4.322;2023-02-28T00:34:55;1.00;99.90
17128;DHT22;8679;50.842;4.322;2023-02-28T00:37:21;1.00;99.90
17128;DHT22;8679;50.842;4.322;2023-02-28T00:39:47;0.90;99.90
17128;DHT22;8679;50.842;4.322;2023-02-28T00:42:12;0.90;99.90
17128;DHT22;8679;50.842;4.322;2023-02-28T00:44:38;0.90;99.90
17128;DHT22;8679;50.842;4.322;2023-02-28T00:47:04;0.90;99.90
17128;DHT22;8679;50.842;4.322;2023-02-28T00:49:30;0.90;99.90
17128;DHT22;8679;50.842;4.322;2023-02-28T00:51:56;0.90;99.90
17128;DHT22;8679;50.842;4.322;2023-02-28T00:54:23;0.90;99.90
17128;DHT22;8679;50.842;4.322;2023-02-28T00:56:49;0.90;99.90
17128;DHT22;8679;50.842;4.322;2023-02-28T00:59:17;0.80;99.90
17128;DHT22;8679;50.842;4.322;2023-02-28T01:01:44;0.80;99.90
17128;DHT22;8679;50.842;4.322;2023-02-28T01:04:10;0.80;99.90
17128;DHT22;8679;50.842;4.322;2023-02-28T01:06:36;0.80;99.90
17128;DHT22;8679;50.842;4.322;2023-02-28T01:09:04;0.80;99.90
17128;DHT22;8679;50.842;4.322;2023-02-28T01:11:30;0.80;99.90
17128;DHT22;8679;50.842;4.322;2023-02-28T01:13:56;0.80;99.90
17128;DHT22;8679;50.842;4.322;2023-02-28T01:16:21;0.80;99.90
17128;DHT22;8679;50.842;4.322;2023-02-28T01:18:47;0.80;99.90
17128;DHT22;8679;50.842;4.322;2023-02-28T01:21:15;0.80;99.90
17128;DHT22;8679;50.842;4.322;2023-02-28T01:23:42;0.80;99.90
17128;DHT22;8679;50.842;4.322;2023-02-28T01:26:11;0.80;99.90
17128;DHT22;8679;50.842;4.322;2023-02-28T01:28:37;0.90;99.90
17128;DHT22;8679;50.842;4.322;2023-02-28T01:31:03;0.80;99.90
17128;DHT22;8679;50.842;4.322;2023-02-28T01:33:29;0.80;99.90
17128;DHT22;8679;50.842;4.322;2023-02-28T01:36:04;0.80;99.90
17128;DHT22;8679;50.842;4.322;2023-02-28T01:38:30;0.70;99.90
17128;DHT22;8679;50.842;4.322;2023-02-28T01:40:56;0.70;99.90
17128;DHT22;8679;50.842;4.322;2023-02-28T01:46:11;0.60;99.90
17128;DHT22;8679;50.842;4.322;2023-02-28T01:48:43;0.70;99.90
17128;DHT22;8679;50.842;4.322;2023-02-28T01:51:13;0.60;99.90
17128;DHT22;8679;50.842;4.322;2023-02-28T01:53:47;0.50;99.90
17128;DHT22;8679;50.842;4.322;2023-02-28T01:56:16;0.50;99.90
17128;DHT22;8679;50.842;4.322;2023-02-28T01:58:47;0.50;99.90
17128;DHT22;8679;50.842;4.322;2023-02-28T02:01:13;0.50;99.90
17128;DHT22;8679;50.842;4.322;2023-02-28T02:04:01;0.50;99.90
17128;DHT22;8679;50.842;4.322;2023-02-28T02:06:37;0.40;99.90
17128;DHT22;8679;50.842;4.322;2023-02-28T02:09:03;0.40;99.90
17128;DHT22;8679;50.842;4.322;2023-02-28T02:11:29;0.40;99.90
17128;DHT22;8679;50.842;4.322;2023-02-28T02:14:26;0.30;99.90
17128;DHT22;8679;50.842;4.322;2023-02-28T02:22:37;0.30;99.90
17128;DHT22;8679;50.842;4.322;2023-02-28T02:25:42;0.30;99.90
17128;DHT22;8679;50.842;4.322;2023-02-28T02:36:25;0.30;99.90
17128;DHT22;8679;50.842;4.322;2023-02-28T02:39:13;0.30;99.90
17128;DHT22;8679;50.842;4.322;2023-02-28T02:41:54;0.30;99.90
17128;DHT22;8679;50.842;4.322;2023-02-28T02:44:31;0.20;99.90
17128;DHT22;8679;50.842;4.322;2023-02-28T02:47:05;0.20;99.90
17128;DHT22;8679;50.842;4.322;2023-02-28T02:49:36;0.20;99.90
17128;DHT22;8679;50.842;4.322;2023-02-28T02:52:06;0.30;99.90
17128;DHT22;8679;50.842;4.322;2023-02-28T02:54:36;0.30;99.90
17128;DHT22;8679;50.842;4.322;2023-02-28T02:57:08;0.30;99.90
17128;DHT22;8679;50.842;4.322;2023-02-28T02:59:38;0.30;99.90
17128;DHT22;8679;50.842;4.322;2023-02-28T03:02:08;0.30;99.90
17128;DHT22;8679;50.842;4.322;2023-02-28T03:04:42;0.30;99.90
17128;DHT22;8679;50.842;4.322;2023-02-28T03:07:08;0.30;99.90
17128;DHT22;8679;50.842;4.322;2023-02-28T03:09:34;0.20;99.90
17128;DHT22;8679;50.842;4.322;2023-02-28T03:12:01;0.20;99.90
17128;DHT22;8679;50.842;4.322;2023-02-28T03:14:52;0.20;99.90
17128;DHT22;8679;50.842;4.322;2023-02-28T03:17:36;0.10;99.90
17128;DHT22;8679;50.842;4.322;2023-02-28T03:20:15;0.20;99.90
17128;DHT22;8679;50.842;4.322;2023-02-28T03:30:47;0.20;99.90
17128;DHT22;8679;50.842;4.322;2023-02-28T03:33:29;0.10;99.90
17128;DHT22;8679;50.842;4.322;2023-02-28T03:36:22;0.00;99.90
17128;DHT22;8679;50.842;4.322;2023-02-28T03:38:50;-0.10;99.90
17128;DHT22;8679;50.842;4.322;2023-02-28T03:41:23;-0.10;99.90
17128;DHT22;8679;50.842;4.322;2023-02-28T03:44:08;-0.10;99.90
17128;DHT22;8679;50.842;4.322;2023-02-28T03:46:38;-0.20;99.90
17128;DHT22;8679;50.842;4.322;2023-02-28T03:49:26;-0.10;99.90
17128;DHT22;8679;50.842;4.322;2023-02-28T03:51:54;-0.20;99.90
17128;DHT22;8679;50.842;4.322;2023-02-28T03:54:29;-0.20;99.90
17128;DHT22;8679;50.842;4.322;2023-02-28T03:57:07;-0.20;99.90
17128;DHT22;8679;50.842;4.322;2023-02-28T03:59:43;-0.20;99.90
17128;DHT22;8679;50.842;4.322;2023-02-28T04:02:09;-0.30;99.90
17128;DHT22;8679;50.842;4.322;2023-02-28T04:04:35;-0.30;99.90
17128;DHT22;8679;50.842;4.322;2023-02-28T04:07:11;-0.30;99.90
17128;DHT22;8679;50.842;4.322;2023-02-28T04:09:37;-0.30;99.90
17128;DHT22;8679;50.842;4.322;2023-02-28T04:12:03;-0.30;99.90
17128;DHT22;8679;50.842;4.322;2023-02-28T04:14:29;-0.20;99.90
17128;DHT22;8679;50.842;4.322;2023-02-28T04:16:55;-0.30;99.90
17128;DHT22;8679;50.842;4.322;2023-02-28T04:19:20;-0.20;99.90
17128;DHT22;8679;50.842;4.322;2023-02-28T04:21:51;-0.30;99.90
17128;DHT22;8679;50.842;4.322;2023-02-28T04:24:22;-0.30;99.90
17128;DHT22;8679;50.842;4.322;2023-02-28T04:26:50;-0.40;99.90
17128;DHT22;8679;50.842;4.322;2023-02-28T04:29:25;-0.40;99.90
17128;DHT22;8679;50.842;4.322;2023-02-28T04:31:51;-0.40;99.90
17128;DHT22;8679;50.842;4.322;2023-02-28T04:34:19;-0.40;99.90
17128;DHT22;8679;50.842;4.322;2023-02-28T04:36:45;-0.30;99.90
17128;DHT22;8679;50.842;4.322;2023-02-28T04:39:11;-0.30;99.90
17128;DHT22;8679;50.842;4.322;2023-02-28T04:41:37;-0.30;99.90
17128;DHT22;8679;50.842;4.322;2023-02-28T04:44:03;-0.30;99.90
17128;DHT22;8679;50.842;4.322;2023-02-28T04:46:29;-0.30;99.90
17128;DHT22;8679;50.842;4.322;2023-02-28T04:48:55;-0.30;99.90
17128;DHT22;8679;50.842;4.322;2023-02-28T04:51:21;-0.40;99.90
17128;DHT22;8679;50.842;4.322;2023-02-28T04:53:47;-0.40;99.90
17128;DHT22;8679;50.842;4.322;2023-02-28T04:56:15;-0.40;99.90
17128;DHT22;8679;50.842;4.322;2023-02-28T04:58:41;-0.30;99.90
17128;DHT22;8679;50.842;4.322;2023-02-28T05:01:31;-0.30;99.90
17128;DHT22;8679;50.842;4.322;2023-02-28T05:03:59;-0.30;99.90
17128;DHT22;8679;50.842;4.322;2023-02-28T05:06:26;-0.20;99.90
17128;DHT22;8679;50.842;4.322;2023-02-28T05:08:53;-0.20;99.90
17128;DHT22;8679;50.842;4.322;2023-02-28T05:11:27;-0.20;99.90
17128;DHT22;8679;50.842;4.322;2023-02-28T05:13:55;-0.10;99.90
17128;DHT22;8679;50.842;4.322;2023-02-28T05:16:21;0.00;99.90
17128;DHT22;8679;50.842;4.322;2023-02-28T05:18:46;0.10;99.90
17128;DHT22;8679;50.842;4.322;2023-02-28T05:21:28;0.20;99.90
17128;DHT22;8679;50.842;4.322;2023-02-28T05:23:56;0.30;99.90
17128;DHT22;8679;50.842;4.322;2023-02-28T05:26:23;0.30;99.90
17128;DHT22;8679;50.842;4.322;2023-02-28T05:28:48;0.40;99.90
17128;DHT22;8679;50.842;4.322;2023-02-28T05:31:14;0.50;99.90
17128;DHT22;8679;50.842;4.322;2023-02-28T05:33:40;0.50;99.90
17128;DHT22;8679;50.842;4.322;2023-02-28T05:36:06;0.60;99.90
17128;DHT22;8679;50.842;4.322;2023-02-28T05:38:32;0.60;99.90
17128;DHT22;8679;50.842;4.322;2023-02-28T05:40:58;0.50;99.90
17128;DHT22;8679;50.842;4.322;2023-02-28T05:43:24;0.60;99.90
17128;DHT22;8679;50.842;4.322;2023-02-28T05:45:50;0.60;99.90
17128;DHT22;8679;50.842;4.322;2023-02-28T05:48:15;0.70;99.90
17128;DHT22;8679;50.842;4.322;2023-02-28T05:50:42;0.70;99.90
17128;DHT22;8679;50.842;4.322;2023-02-28T05:53:10;0.80;99.90
17128;DHT22;8679;50.842;4.322;2023-02-28T05:55:36;0.80;99.90
17128;DHT22;8679;50.842;4.322;2023-02-28T05:58:02;0.80;99.90
17128;DHT22;8679;50.842;4.322;2023-02-28T06:00:28;0.90;99.90
17128;DHT22;8679;50.842;4.322;2023-02-28T06:02:54;0.90;99.90
17128;DHT22;8679;50.842;4.322;2023-02-28T06:05:21;0.90;99.90
17128;DHT22;8679;50.842;4.322;2023-02-28T06:07:47;0.90;99.90
17128;DHT22;8679;50.842;4.322;2023-02-28T06:10:13;0.90;99.90
17128;DHT22;8679;50.842;4.322;2023-02-28T06:12:40;0.90;99.90
17128;DHT22;8679;50.842;4.322;2023-02-28T06:15:11;1.00;99.90
17128;DHT22;8679;50.842;4.322;2023-02-28T06:17:37;1.00;99.90
17128;DHT22;8679;50.842;4.322;2023-02-28T06:20:03;1.00;99.90
17128;DHT22;8679;50.842;4.322;2023-02-28T06:22:29;1.00;99.90
17128;DHT22;8679;50.842;4.322;2023-02-28T06:24:55;1.00;99.90
17128;DHT22;8679;50.842;4.322;2023-02-28T06:27:22;1.10;99.90
17128;DHT22;8679;50.842;4.322;2023-02-28T06:29:48;1.10;99.90
17128;DHT22;8679;50.842;4.322;2023-02-28T06:32:13;1.10;99.90
17128;DHT22;8679;50.842;4.322;2023-02-28T06:34:39;1.10;99.90
17128;DHT22;8679;50.842;4.322;2023-02-28T06:37:05;1.10;99.90
17128;DHT22;8679;50.842;4.322;2023-02-28T06:39:31;1.10;99.90
17128;DHT22;8679;50.842;4.322;2023-02-28T06:41:57;1.20;99.90
17128;DHT22;8679;50.842;4.322;2023-02-28T06:44:23;1.20;99.90
17128;DHT22;8679;50.842;4.322;2023-02-28T06:46:49;1.20;99.90
17128;DHT22;8679;50.842;4.322;2023-02-28T06:49:15;1.30;99.90
17128;DHT22;8679;50.842;4.322;2023-02-28T06:51:42;1.30;99.90
17128;DHT22;8679;50.842;4.322;2023-02-28T06:54:12;1.40;99.90
17128;DHT22;8679;50.842;4.322;2023-02-28T06:56:38;1.40;99.90
17128;DHT22;8679;50.842;4.322;2023-02-28T06:59:04;1.50;99.90
17128;DHT22;8679;50.842;4.322;2023-02-28T07:01:30;1.50;99.90
17128;DHT22;8679;50.842;4.322;2023-02-28T07:03:57;1.50;99.90
17128;DHT22;8679;50.842;4.322;2023-02-28T07:06:24;1.60;99.90
17128;DHT22;8679;50.842;4.322;2023-02-28T07:08:51;1.70;99.90
17128;DHT22;8679;50.842;4.322;2023-02-28T07:11:21;1.70;99.90
17128;DHT22;8679;50.842;4.322;2023-02-28T07:13:49;1.80;99.90
17128;DHT22;8679;50.842;4.322;2023-02-28T07:16:14;1.80;99.90
17128;DHT22;8679;50.842;4.322;2023-02-28T07:18:40;1.80;99.90
17128;DHT22;8679;50.842;4.322;2023-02-28T07:21:08;1.80;99.90
17128;DHT22;8679;50.842;4.322;2023-02-28T07:23:34;1.90;99.90
17128;DHT22;8679;50.842;4.322;2023-02-28T07:26:00;2.00;99.90
17128;DHT22;8679;50.842;4.322;2023-02-28T07:28:26;2.00;99.90
17128;DHT22;8679;50.842;4.322;2023-02-28T07:30:52;2.10;99.90
17128;DHT22;8679;50.842;4.322;2023-02-28T07:33:18;2.20;99.90
17128;DHT22;8679;50.842;4.322;2023-02-28T07:35:44;2.40;99.90
17128;DHT22;8679;50.842;4.322;2023-02-28T07:38:10;2.40;99.90
17128;DHT22;8679;50.842;4.322;2023-02-28T07:40:36;2.50;99.90
17128;DHT22;8679;50.842;4.322;2023-02-28T07:43:03;2.50;99.90
17128;DHT22;8679;50.842;4.322;2023-02-28T07:45:29;2.60;99.90
17128;DHT22;8679;50.842;4.322;2023-02-28T07:47:56;2.70;99.90
17128;DHT22;8679;50.842;4.322;2023-02-28T07:50:22;2.80;99.90
17128;DHT22;8679;50.842;4.322;2023-02-28T07:52:48;2.90;99.90
17128;DHT22;8679;50.842;4.322;2023-02-28T07:55:14;2.90;99.90
17128;DHT22;8679;50.842;4.322;2023-02-28T07:57:40;2.90;99.90
17128;DHT22;8679;50.842;4.322;2023-02-28T08:00:08;2.90;99.90
17128;DHT22;8679;50.842;4.322;2023-02-28T08:02:35;2.90;99.90
17128;DHT22;8679;50.842;4.322;2023-02-28T08:05:01;2.90;99.90
17128;DHT22;8679;50.842;4.322;2023-02-28T08:07:26;2.90;99.90
17128;DHT22;8679;50.842;4.322;2023-02-28T08:09:52;3.00;99.90
17128;DHT22;8679;50.842;4.322;2023-02-28T08:12:18;3.00;99.90
17128;DHT22;8679;50.842;4.322;2023-02-28T08:14:43;3.10;99.90
17128;DHT22;8679;50.842;4.322;2023-02-28T08:17:10;3.20;99.90
17128;DHT22;8679;50.842;4.322;2023-02-28T08:19:36;3.20;99.90
17128;DHT22;8679;50.842;4.322;2023-02-28T08:22:02;3.40;99.90
17128;DHT22;8679;50.842;4.322;2023-02-28T08:24:28;3.50;99.90
17128;DHT22;8679;50.842;4.322;2023-02-28T08:26:54;3.60;99.90
17128;DHT22;8679;50.842;4.322;2023-02-28T08:29:19;3.60;99.90
17128;DHT22;8679;50.842;4.322;2023-02-28T08:31:45;3.70;99.90
17128;DHT22;8679;50.842;4.322;2023-02-28T08:34:14;3.80;99.90
17128;DHT22;8679;50.842;4.322;2023-02-28T08:36:40;3.90;99.90
17128;DHT22;8679;50.842;4.322;2023-02-28T08:39:07;4.00;99.90
17128;DHT22;8679;50.842;4.322;2023-02-28T08:41:33;4.20;99.90
17128;DHT22;8679;50.842;4.322;2023-02-28T08:43:58;4.30;99.90
17128;DHT22;8679;50.842;4.322;2023-02-28T08:46:25;4.30;99.90
17128;DHT22;8679;50.842;4.322;2023-02-28T08:48:52;4.30;99.90
17128;DHT22;8679;50.842;4.322;2023-02-28T08:51:19;4.30;99.90
17128;DHT22;8679;50.842;4.322;2023-02-28T08:53:52;4.30;99.90
17128;DHT22;8679;50.842;4.322;2023-02-28T08:56:18;4.20;99.90
17128;DHT22;8679;50.842;4.322;2023-02-28T08:58:45;4.20;99.90
17128;DHT22;8679;50.842;4.322;2023-02-28T09:01:19;4.10;99.90
17128;DHT22;8679;50.842;4.322;2023-02-28T09:03:46;4.10;99.90
17128;DHT22;8679;50.842;4.322;2023-02-28T09:06:14;4.10;99.90
17128;DHT22;8679;50.842;4.322;2023-02-28T09:08:40;4.20;99.90
17128;DHT22;8679;50.842;4.322;2023-02-28T09:11:07;4.20;99.90
17128;DHT22;8679;50.842;4.322;2023-02-28T09:13:33;4.10;99.90
17128;DHT22;8679;50.842;4.322;2023-02-28T09:16:00;4.10;99.90
17128;DHT22;8679;50.842;4.322;2023-02-28T09:18:27;4.10;99.90
17128;DHT22;8679;50.842;4.322;2023-02-28T09:20:53;4.10;99.90
17128;DHT22;8679;50.842;4.322;2023-02-28T09:23:19;4.20;99.90
17128;DHT22;8679;50.842;4.322;2023-02-28T09:25:49;4.20;99.90
17128;DHT22;8679;50.842;4.322;2023-02-28T09:28:16;4.20;99.90
17128;DHT22;8679;50.842;4.322;2023-02-28T09:30:45;4.30;99.90
17128;DHT22;8679;50.842;4.322;2023-02-28T09:33:12;4.20;99.90
17128;DHT22;8679;50.842;4.322;2023-02-28T09:35:37;4.20;99.90
17128;DHT22;8679;50.842;4.322;2023-02-28T09:38:03;4.20;99.90
17128;DHT22;8679;50.842;4.322;2023-02-28T09:40:29;4.20;99.90
17128;DHT22;8679;50.842;4.322;2023-02-28T09:42:57;4.20;99.90
17128;DHT22;8679;50.842;4.322;2023-02-28T09:45:40;4.20;99.90
17128;DHT22;8679;50.842;4.322;2023-02-28T09:48:15;4.20;99.90
17128;DHT22;8679;50.842;4.322;2023-02-28T09:50:51;4.20;99.90
17128;DHT22;8679;50.842;4.322;2023-02-28T09:53:35;4.30;99.90
17128;DHT22;8679;50.842;4.322;2023-02-28T09:56:18;4.30;99.90
17128;DHT22;8679;50.842;4.322;2023-02-28T09:58:56;4.40;99.90
17128;DHT22;8679;50.842;4.322;2023-02-28T10:06:57;4.60;99.90
17128;DHT22;8679;50.842;4.322;2023-02-28T10:09:30;4.60;99.90
17128;DHT22;8679;50.842;4.322;2023-02-28T10:12:04;4.50;99.90
17128;DHT22;8679;50.842;4.322;2023-02-28T10:14:33;4.60;99.90
17128;DHT22;8679;50.842;4.322;2023-02-28T10:17:15;4.60;99.90
17128;DHT22;8679;50.842;4.322;2023-02-28T10:19:44;4.60;99.90
17128;DHT22;8679;50.842;4.322;2023-02-28T10:22:14;4.60;99.90
17128;DHT22;8679;50.842;4.322;2023-02-28T10:24:47;4.60;99.90
17128;DHT22;8679;50.842;4.322;2023-02-28T10:27:19;4.70;99.90
17128;DHT22;8679;50.842;4.322;2023-02-28T10:29:50;4.80;99.90
17128;DHT22;8679;50.842;4.322;2023-02-28T10:32:21;4.70;99.90
17128;DHT22;8679;50.842;4.322;2023-02-28T10:35:00;4.80;99.90
17128;DHT22;8679;50.842;4.322;2023-02-28T10:37:27;4.80;99.90
17128;DHT22;8679;50.842;4.322;2023-02-28T10:39:53;4.80;99.90
17128;DHT22;8679;50.842;4.322;2023-02-28T10:42:26;4.80;99.90
17128;DHT22;8679;50.842;4.322;2023-02-28T10:45:12;4.90;99.90
17128;DHT22;8679;50.842;4.322;2023-02-28T10:47:56;4.90;99.90
17128;DHT22;8679;50.842;4.322;2023-02-28T10:50:42;5.10;99.90
17128;DHT22;8679;50.842;4.322;2023-02-28T10:53:30;5.10;99.90
17128;DHT22;8679;50.842;4.322;2023-02-28T10:56:05;5.20;99.90
17128;DHT22;8679;50.842;4.322;2023-02-28T11:03:55;5.40;99.90
17128;DHT22;8679;50.842;4.322;2023-02-28T11:06:29;5.50;99.90
17128;DHT22;8679;50.842;4.322;2023-02-28T11:08:58;5.60;99.90
17128;DHT22;8679;50.842;4.322;2023-02-28T11:11:27;5.60;99.90
17128;DHT22;8679;50.842;4.322;2023-02-28T11:13:56;5.80;99.90
17128;DHT22;8679;50.842;4.322;2023-02-28T11:16:22;5.90;99.90
17128;DHT22;8679;50.842;4.322;2023-02-28T11:18:56;5.90;99.90
17128;DHT22;8679;50.842;4.322;2023-02-28T11:21:34;5.90;99.90
17128;DHT22;8679;50.842;4.322;2023-02-28T11:26:49;6.20;99.90
17128;DHT22;8679;50.842;4.322;2023-02-28T11:29:19;6.20;99.90
17128;DHT22;8679;50.842;4.322;2023-02-28T11:34:36;6.30;99.90
17128;DHT22;8679;50.842;4.322;2023-02-28T11:37:03;6.50;99.90
17128;DHT22;8679;50.842;4.322;2023-02-28T11:39:32;6.40;99.90
17128;DHT22;8679;50.842;4.322;2023-02-28T11:47:42;6.80;99.90
17128;DHT22;8679;50.842;4.322;2023-02-28T12:04:51;8.80;92.30
17128;DHT22;8679;50.842;4.322;2023-02-28T12:17:58;10.70;76.80
17128;DHT22;8679;50.842;4.322;2023-02-28T12:20:54;10.90;70.20
17128;DHT22;8679;50.842;4.322;2023-02-28T12:28:52;11.70;56.00
17128;DHT22;8679;50.842;4.322;2023-02-28T12:31:24;11.90;50.90
17128;DHT22;8679;50.842;4.322;2023-02-28T12:33:53;12.00;49.00
17128;DHT22;8679;50.842;4.322;2023-02-28T12:36:22;12.80;47.50
17128;DHT22;8679;50.842;4.322;2023-02-28T12:39:00;13.30;41.50
17128;DHT22;8679;50.842;4.322;2023-02-28T12:41:34;13.30;41.70
17128;DHT22;8679;50.842;4.322;2023-02-28T12:44:09;13.30;38.30
17128;DHT22;8679;50.842;4.322;2023-02-28T12:46:44;13.10;35.50
17128;DHT22;8679;50.842;4.322;2023-02-28T12:49:23;13.50;37.20
17128;DHT22;8679;50.842;4.322;2023-02-28T12:51:51;13.20;30.00
17128;DHT22;8679;50.842;4.322;2023-02-28T12:54:28;13.10;28.40
17128;DHT22;8679;50.842;4.322;2023-02-28T12:59:49;12.30;26.70
17128;DHT22;8679;50.842;4.322;2023-02-28T13:10:45;12.20;25.60
17128;DHT22;8679;50.842;4.322;2023-02-28T13:13:16;13.00;28.50
17128;DHT22;8679;50.842;4.322;2023-02-28T13:16:06;13.50;28.10
17128;DHT22;8679;50.842;4.322;2023-02-28T13:18:46;12.90;21.70
17128;DHT22;8679;50.842;4.322;2023-02-28T13:21:27;12.40;22.60
17128;DHT22;8679;50.842;4.322;2023-02-28T13:34:42;13.00;24.20
17128;DHT22;8679;50.842;4.322;2023-02-28T13:47:59;14.00;20.90
17128;DHT22;8679;50.842;4.322;2023-02-28T13:56:08;13.10;17.30
17128;DHT22;8679;50.842;4.322;2023-02-28T14:04:23;13.70;16.30
17128;DHT22;8679;50.842;4.322;2023-02-28T14:06:56;12.80;16.30
17128;DHT22;8679;50.842;4.322;2023-02-28T14:09:32;12.40;16.20
17128;DHT22;8679;50.842;4.322;2023-02-28T14:15:03;12.80;16.00
17128;DHT22;8679;50.842;4.322;2023-02-28T14:17:31;12.60;16.20
17128;DHT22;8679;50.842;4.322;2023-02-28T14:19:57;12.80;18.00
17128;DHT22;8679;50.842;4.322;2023-02-28T14:27:35;13.80;17.60
17128;DHT22;8679;50.842;4.322;2023-02-28T14:30:29;14.00;16.70
17128;DHT22;8679;50.842;4.322;2023-02-28T14:33:32;14.00;16.80
17128;DHT22;8679;50.842;4.322;2023-02-28T14:38:46;14.00;15.80
17128;DHT22;8679;50.842;4.322;2023-02-28T14:41:19;13.40;13.90
17128;DHT22;8679;50.842;4.322;2023-02-28T14:43:52;13.10;14.30
17128;DHT22;8679;50.842;4.322;2023-02-28T14:46:19;12.40;15.40
17128;DHT22;8679;50.842;4.322;2023-02-28T14:48:46;12.60;15.90
17128;DHT22;8679;50.842;4.322;2023-02-28T14:51:19;12.90;18.10
17128;DHT22;8679;50.842;4.322;2023-02-28T14:54:06;12.80;16.50
17128;DHT22;8679;50.842;4.322;2023-02-28T14:56:37;13.00;16.10
17128;DHT22;8679;50.842;4.322;2023-02-28T14:59:04;12.60;15.50
17128;DHT22;8679;50.842;4.322;2023-02-28T15:01:29;12.30;15.50
17128;DHT22;8679;50.842;4.322;2023-02-28T15:04:05;12.00;15.70
17128;DHT22;8679;50.842;4.322;2023-02-28T15:06:32;11.80;16.40
17128;DHT22;8679;50.842;4.322;2023-02-28T15:11:35;12.50;17.10
17128;DHT22;8679;50.842;4.322;2023-02-28T15:14:01;12.70;17.10
17128;DHT22;8679;50.842;4.322;2023-02-28T15:16:41;12.30;16.30
17128;DHT22;8679;50.842;4.322;2023-02-28T15:19:34;12.60;17.40
17128;DHT22;8679;50.842;4.322;2023-02-28T15:22:03;12.90;17.70
17128;DHT22;8679;50.842;4.322;2023-02-28T15:24:49;13.00;17.90
17128;DHT22;8679;50.842;4.322;2023-02-28T15:29:50;13.40;16.90
17128;DHT22;8679;50.842;4.322;2023-02-28T15:32:24;12.90;15.40
17128;DHT22;8679;50.842;4.322;2023-02-28T15:34:51;12.70;15.10
17128;DHT22;8679;50.842;4.322;2023-02-28T15:40:11;12.80;18.40
17128;DHT22;8679;50.842;4.322;2023-02-28T15:42:38;12.60;16.00
17128;DHT22;8679;50.842;4.322;2023-02-28T15:45:04;12.20;16.90
17128;DHT22;8679;50.842;4.322;2023-02-28T15:47:30;12.00;17.60
17128;DHT22;8679;50.842;4.322;2023-02-28T15:50:06;12.20;18.80
17128;DHT22;8679;50.842;4.322;2023-02-28T15:52:43;11.90;17.80
17128;DHT22;8679;50.842;4.322;2023-02-28T15:55:19;11.90;18.30
17128;DHT22;8679;50.842;4.322;2023-02-28T15:57:49;12.00;18.50
17128;DHT22;8679;50.842;4.322;2023-02-28T16:00:19;12.00;17.70
17128;DHT22;8679;50.842;4.322;2023-02-28T16:02:45;11.90;17.50
17128;DHT22;8679;50.842;4.322;2023-02-28T16:07:38;11.60;18.40
17128;DHT22;8679;50.842;4.322;2023-02-28T16:10:06;11.50;18.30
17128;DHT22;8679;50.842;4.322;2023-02-28T16:12:34;11.40;18.30
17128;DHT22;8679;50.842;4.322;2023-02-28T16:15:24;11.30;18.00
17128;DHT22;8679;50.842;4.322;2023-02-28T16:17:48;11.50;19.60
17128;DHT22;8679;50.842;4.322;2023-02-28T16:20:17;11.60;19.70
17128;DHT22;8679;50.842;4.322;2023-02-28T16:22:43;11.60;19.00
17128;DHT22;8679;50.842;4.322;2023-02-28T16:25:18;11.40;18.20
17128;DHT22;8679;50.842;4.322;2023-02-28T16:27:48;11.10;18.60
17128;DHT22;8679;50.842;4.322;2023-02-28T16:30:28;11.10;19.60
17128;DHT22;8679;50.842;4.322;2023-02-28T16:32:57;11.20;20.60
17128;DHT22;8679;50.842;4.322;2023-02-28T16:35:23;11.20;20.50
17128;DHT22;8679;50.842;4.322;2023-02-28T16:37:51;11.10;21.70
17128;DHT22;8679;50.842;4.322;2023-02-28T16:40:23;11.00;21.20
17128;DHT22;8679;50.842;4.322;2023-02-28T16:42:50;10.90;21.00
17128;DHT22;8679;50.842;4.322;2023-02-28T16:45:22;11.00;20.80
17128;DHT22;8679;50.842;4.322;2023-02-28T16:47:48;11.00;21.20
17128;DHT22;8679;50.842;4.322;2023-02-28T16:50:20;11.20;21.00
17128;DHT22;8679;50.842;4.322;2023-02-28T16:52:46;11.20;19.80
17128;DHT22;8679;50.842;4.322;2023-02-28T16:55:13;11.30;19.90
17128;DHT22;8679;50.842;4.322;2023-02-28T16:57:39;11.30;19.80
17128;DHT22;8679;50.842;4.322;2023-02-28T17:00:07;11.30;19.10
17128;DHT22;8679;50.842;4.322;2023-02-28T17:02:33;11.20;20.20
17128;DHT22;8679;50.842;4.322;2023-02-28T17:04:59;11.10;20.50
17128;DHT22;8679;50.842;4.322;2023-02-28T17:07:25;10.70;21.70
17128;DHT22;8679;50.842;4.322;2023-02-28T17:09:50;10.20;21.70
17128;DHT22;8679;50.842;4.322;2023-02-28T17:12:16;9.50;22.80
17128;DHT22;8679;50.842;4.322;2023-02-28T17:14:41;8.70;24.50
17128;DHT22;8679;50.842;4.322;2023-02-28T17:17:15;8.30;27.00
17128;DHT22;8679;50.842;4.322;2023-02-28T17:19:42;7.90;28.20
17128;DHT22;8679;50.842;4.322;2023-02-28T17:22:09;7.60;30.70
17128;DHT22;8679;50.842;4.322;2023-02-28T17:24:35;7.30;33.10
17128;DHT22;8679;50.842;4.322;2023-02-28T17:27:01;7.10;33.60
17128;DHT22;8679;50.842;4.322;2023-02-28T17:29:27;6.80;36.20
17128;DHT22;8679;50.842;4.322;2023-02-28T17:31:52;6.60;38.90
17128;DHT22;8679;50.842;4.322;2023-02-28T17:34:18;6.40;41.40
17128;DHT22;8679;50.842;4.322;2023-02-28T17:36:49;6.30;41.10
17128;DHT22;8679;50.842;4.322;2023-02-28T17:39:17;6.20;43.80
17128;DHT22;8679;50.842;4.322;2023-02-28T17:41:50;6.10;45.90
17128;DHT22;8679;50.842;4.322;2023-02-28T17:44:17;5.90;47.20
17128;DHT22;8679;50.842;4.322;2023-02-28T17:46:43;5.80;48.80
17128;DHT22;8679;50.842;4.322;2023-02-28T17:49:10;5.70;54.20
17128;DHT22;8679;50.842;4.322;2023-02-28T17:51:35;5.60;55.10
17128;DHT22;8679;50.842;4.322;2023-02-28T17:54:01;5.50;57.10
17128;DHT22;8679;50.842;4.322;2023-02-28T17:56:27;5.40;59.00
17128;DHT22;8679;50.842;4.322;2023-02-28T17:58:54;5.30;60.80
17128;DHT22;8679;50.842;4.322;2023-02-28T18:01:21;5.20;65.60
17128;DHT22;8679;50.842;4.322;2023-02-28T18:03:48;5.10;66.40
17128;DHT22;8679;50.842;4.322;2023-02-28T18:06:24;5.00;70.50
17128;DHT22;8679;50.842;4.322;2023-02-28T18:08:51;4.90;75.90
17128;DHT22;8679;50.842;4.322;2023-02-28T18:11:21;4.90;78.60
17128;DHT22;8679;50.842;4.322;2023-02-28T18:13:49;4.90;85.20
17128;DHT22;8679;50.842;4.322;2023-02-28T18:16:16;4.80;85.80
17128;DHT22;8679;50.842;4.322;2023-02-28T18:18:42;4.80;87.90
17128;DHT22;8679;50.842;4.322;2023-02-28T18:21:09;4.70;91.40
17128;DHT22;8679;50.842;4.322;2023-02-28T18:23:35;4.70;92.70
17128;DHT22;8679;50.842;4.322;2023-02-28T18:26:01;4.60;92.70
17128;DHT22;8679;50.842;4.322;2023-02-28T18:28:26;4.50;93.60
17128;DHT22;8679;50.842;4.322;2023-02-28T18:30:52;4.40;94.50
17128;DHT22;8679;50.842;4.322;2023-02-28T18:33:18;4.40;96.50
17128;DHT22;8679;50.842;4.322;2023-02-28T18:35:44;4.30;96.60